EJM802 KCLE-KEFK
Flight info
| Callsign | EJM802 |
|---|---|
| Flight time | 1h 15m |
| Altitude | 45000 |
| Route | PFLYD1 DUUKR ROC BTV |
| Aircraft | C750/M-SBDE3FGHRWXY/S |
Departure
| Time | 2026-04-27 20:28 |
|---|---|
| Airport | Cleveland Hopkins International Airport (KCLE) |
Arrival
| Time | 2026-04-27 21:43 |
|---|---|
| Airport | Northeast Kingdom International Airport (KEFK) |
| Time | Latitude | Longitude | Altitude | Speed | Heading |
|---|---|---|---|---|---|
| 2026-04-27 20:14 | 41.41342 | -81.83519 | 792 ft | 0 kts | 252° |
| 2026-04-27 20:25 | 41.41342 | -81.83522 | 792 ft | 2 kts | 253° |
| 2026-04-27 20:25 | 41.41348 | -81.83554 | 792 ft | 6 kts | 300° |
| 2026-04-27 20:25 | 41.41394 | -81.83605 | 792 ft | 12 kts | 327° |
| 2026-04-27 20:25 | 41.41477 | -81.83681 | 792 ft | 17 kts | 320° |
| 2026-04-27 20:26 | 41.41524 | -81.83818 | 792 ft | 16 kts | 275° |
| 2026-04-27 20:26 | 41.41486 | -81.83942 | 792 ft | 15 kts | 229° |
| 2026-04-27 20:26 | 41.41410 | -81.84024 | 792 ft | 15 kts | 219° |
| 2026-04-27 20:26 | 41.41372 | -81.84147 | 792 ft | 17 kts | 296° |
| 2026-04-27 20:27 | 41.41414 | -81.84293 | 790 ft | 17 kts | 315° |
| 2026-04-27 20:27 | 41.41394 | -81.84424 | 791 ft | 21 kts | 231° |
| 2026-04-27 20:27 | 41.41133 | -81.84835 | 793 ft | 103 kts | 230° |
| 2026-04-27 20:27 | 41.40567 | -81.85733 | 1058 ft | 129 kts | 230° |
| 2026-04-27 20:28 | 41.39982 | -81.86680 | 1595 ft | 137 kts | 230° |
| 2026-04-27 20:28 | 41.39358 | -81.87702 | 2015 ft | 148 kts | 232° |
| 2026-04-27 20:28 | 41.38909 | -81.88952 | 2496 ft | 152 kts | 255° |
| 2026-04-27 20:28 | 41.38834 | -81.89883 | 2829 ft | 154 kts | 271° |
| 2026-04-27 20:29 | 41.39052 | -81.91734 | 3544 ft | 152 kts | 278° |
| 2026-04-27 20:29 | 41.39216 | -81.93122 | 4081 ft | 152 kts | 278° |
| 2026-04-27 20:29 | 41.39395 | -81.94520 | 4640 ft | 153 kts | 279° |
| 2026-04-27 20:29 | 41.39578 | -81.95925 | 5195 ft | 154 kts | 279° |
| 2026-04-27 20:30 | 41.39763 | -81.97327 | 5743 ft | 154 kts | 279° |
| 2026-04-27 20:30 | 41.39947 | -81.98727 | 6288 ft | 153 kts | 279° |
| 2026-04-27 20:30 | 41.40127 | -82.00096 | 6820 ft | 151 kts | 279° |
| 2026-04-27 20:30 | 41.40305 | -82.01502 | 7378 ft | 160 kts | 278° |
| 2026-04-27 20:31 | 41.40499 | -82.03034 | 7965 ft | 176 kts | 279° |
| 2026-04-27 20:31 | 41.40715 | -82.04735 | 8549 ft | 196 kts | 279° |
| 2026-04-27 20:31 | 41.40954 | -82.06605 | 9133 ft | 213 kts | 279° |
| 2026-04-27 20:31 | 41.41213 | -82.08640 | 9715 ft | 232 kts | 279° |
| 2026-04-27 20:32 | 41.41766 | -82.10723 | 10190 ft | 252 kts | 305° |
| 2026-04-27 20:32 | 41.43225 | -82.12135 | 10639 ft | 274 kts | 340° |
| 2026-04-27 20:32 | 41.45168 | -82.12194 | 11110 ft | 293 kts | 14° |
| 2026-04-27 20:32 | 41.46978 | -82.10844 | 11657 ft | 306 kts | 39° |
| 2026-04-27 20:33 | 41.48546 | -82.08846 | 12289 ft | 316 kts | 45° |
| 2026-04-27 20:33 | 41.50146 | -82.06767 | 12899 ft | 327 kts | 42° |
| 2026-04-27 20:33 | 41.51915 | -82.04797 | 13473 ft | 337 kts | 38° |
| 2026-04-27 20:33 | 41.53790 | -82.02841 | 14027 ft | 346 kts | 38° |
| 2026-04-27 20:34 | 41.55669 | -82.00757 | 14564 ft | 356 kts | 40° |
| 2026-04-27 20:34 | 41.57568 | -81.98573 | 15094 ft | 364 kts | 40° |
| 2026-04-27 20:34 | 41.59529 | -81.96373 | 15621 ft | 371 kts | 39° |
| 2026-04-27 20:34 | 41.61351 | -81.93903 | 16065 ft | 379 kts | 55° |
| 2026-04-27 20:35 | 41.62400 | -81.90643 | 16487 ft | 387 kts | 77° |
| 2026-04-27 20:35 | 41.62724 | -81.87059 | 17092 ft | 389 kts | 85° |
| 2026-04-27 20:35 | 41.62900 | -81.83489 | 17745 ft | 392 kts | 87° |
| 2026-04-27 20:35 | 41.63077 | -81.79843 | 18399 ft | 395 kts | 86° |
| 2026-04-27 20:36 | 41.63299 | -81.76170 | 19047 ft | 398 kts | 85° |
| 2026-04-27 20:36 | 41.63527 | -81.72469 | 19690 ft | 401 kts | 85° |
| 2026-04-27 20:36 | 41.63732 | -81.68726 | 20334 ft | 405 kts | 86° |
| 2026-04-27 20:36 | 41.63933 | -81.64959 | 20977 ft | 408 kts | 86° |
| 2026-04-27 20:37 | 41.64146 | -81.61162 | 21622 ft | 410 kts | 86° |
| 2026-04-27 20:37 | 41.64363 | -81.57348 | 22266 ft | 412 kts | 86° |
| 2026-04-27 20:37 | 41.64737 | -81.53548 | 22849 ft | 415 kts | 76° |
| 2026-04-27 20:37 | 41.65809 | -81.49959 | 23418 ft | 417 kts | 62° |
| 2026-04-27 20:38 | 41.67254 | -81.46579 | 23962 ft | 421 kts | 60° |
| 2026-04-27 20:38 | 41.68746 | -81.43170 | 24211 ft | 428 kts | 59° |
| 2026-04-27 20:38 | 41.70249 | -81.39691 | 24551 ft | 436 kts | 59° |
| 2026-04-27 20:38 | 41.71755 | -81.36163 | 24894 ft | 446 kts | 59° |
| 2026-04-27 20:39 | 41.73310 | -81.32532 | 25269 ft | 454 kts | 58° |
| 2026-04-27 20:39 | 41.74899 | -81.28841 | 25664 ft | 460 kts | 58° |
| 2026-04-27 20:39 | 41.76504 | -81.25105 | 26072 ft | 465 kts | 58° |
| 2026-04-27 20:39 | 41.78121 | -81.21320 | 26494 ft | 469 kts | 58° |
| 2026-04-27 20:40 | 41.79744 | -81.17515 | 26928 ft | 473 kts | 58° |
| 2026-04-27 20:40 | 41.81383 | -81.13678 | 27371 ft | 475 kts | 58° |
| 2026-04-27 20:40 | 41.83027 | -81.09826 | 27926 ft | 477 kts | 58° |
| 2026-04-27 20:40 | 41.84677 | -81.05948 | 28515 ft | 479 kts | 58° |
| 2026-04-27 20:41 | 41.86331 | -81.02054 | 29118 ft | 481 kts | 57° |
| 2026-04-27 20:41 | 41.87991 | -80.98148 | 29703 ft | 482 kts | 57° |
| 2026-04-27 20:41 | 41.89653 | -80.94228 | 30284 ft | 484 kts | 57° |
| 2026-04-27 20:41 | 41.91317 | -80.90297 | 30799 ft | 484 kts | 57° |
| 2026-04-27 20:42 | 41.92954 | -80.86425 | 31289 ft | 481 kts | 57° |
| 2026-04-27 20:42 | 41.94614 | -80.82498 | 31773 ft | 483 kts | 56° |
| 2026-04-27 20:42 | 41.96274 | -80.78564 | 32264 ft | 484 kts | 56° |
| 2026-04-27 20:42 | 41.97934 | -80.74621 | 32765 ft | 485 kts | 56° |
| 2026-04-27 20:43 | 41.99596 | -80.70667 | 33263 ft | 484 kts | 56° |
| 2026-04-27 20:43 | 42.01166 | -80.66658 | 33752 ft | 485 kts | 58° |
| 2026-04-27 20:43 | 42.02724 | -80.62639 | 34240 ft | 483 kts | 57° |
| 2026-04-27 20:43 | 42.04269 | -80.58679 | 34655 ft | 485 kts | 57° |
| 2026-04-27 20:44 | 42.05837 | -80.54652 | 35097 ft | 486 kts | 57° |
| 2026-04-27 20:44 | 42.07394 | -80.50620 | 35595 ft | 484 kts | 56° |
| 2026-04-27 20:44 | 42.08945 | -80.46601 | 36089 ft | 484 kts | 56° |
| 2026-04-27 20:44 | 42.10501 | -80.42581 | 36602 ft | 484 kts | 56° |
| 2026-04-27 20:45 | 42.12057 | -80.38555 | 37108 ft | 484 kts | 55° |
| 2026-04-27 20:45 | 42.13604 | -80.34535 | 37598 ft | 484 kts | 55° |
| 2026-04-27 20:45 | 42.15158 | -80.30491 | 38097 ft | 484 kts | 55° |
| 2026-04-27 20:45 | 42.16710 | -80.26454 | 38595 ft | 485 kts | 54° |
| 2026-04-27 20:46 | 42.18260 | -80.22416 | 39051 ft | 484 kts | 54° |
| 2026-04-27 20:46 | 42.19787 | -80.18430 | 39496 ft | 484 kts | 55° |
| 2026-04-27 20:46 | 42.21328 | -80.14400 | 39941 ft | 482 kts | 55° |
| 2026-04-27 20:46 | 42.22861 | -80.10389 | 40365 ft | 480 kts | 55° |
| 2026-04-27 20:47 | 42.24393 | -80.06379 | 40772 ft | 480 kts | 56° |
| 2026-04-27 20:47 | 42.25922 | -80.02364 | 41239 ft | 479 kts | 56° |
| 2026-04-27 20:47 | 42.27440 | -79.98365 | 41745 ft | 478 kts | 56° |
| 2026-04-27 20:47 | 42.28954 | -79.94379 | 42226 ft | 476 kts | 57° |
| 2026-04-27 20:48 | 42.30465 | -79.90401 | 42696 ft | 475 kts | 57° |
| 2026-04-27 20:48 | 42.31464 | -79.87765 | 43008 ft | 474 kts | 57° |
| 2026-04-27 20:48 | 42.33454 | -79.82504 | 43625 ft | 472 kts | 58° |
| 2026-04-27 20:48 | 42.34951 | -79.78542 | 44086 ft | 471 kts | 58° |
| 2026-04-27 20:49 | 42.36439 | -79.74598 | 44516 ft | 470 kts | 58° |
| 2026-04-27 20:49 | 42.37925 | -79.70654 | 44927 ft | 470 kts | 58° |
| 2026-04-27 20:49 | 42.39408 | -79.66713 | 45193 ft | 471 kts | 58° |
| 2026-04-27 20:49 | 42.40907 | -79.62730 | 45169 ft | 479 kts | 58° |
| 2026-04-27 20:50 | 42.43948 | -79.54619 | 45172 ft | 493 kts | 58° |
| 2026-04-27 20:50 | 42.47093 | -79.46205 | 45168 ft | 507 kts | 59° |
| 2026-04-27 20:51 | 42.50309 | -79.37573 | 45159 ft | 514 kts | 59° |
| 2026-04-27 20:51 | 42.53533 | -79.28890 | 45150 ft | 514 kts | 59° |
| 2026-04-27 20:52 | 42.56746 | -79.20221 | 45154 ft | 515 kts | 59° |
| 2026-04-27 20:52 | 42.59954 | -79.11529 | 45164 ft | 515 kts | 59° |
| 2026-04-27 20:53 | 42.63142 | -79.02874 | 45163 ft | 513 kts | 59° |
| 2026-04-27 20:53 | 42.66319 | -78.94219 | 45171 ft | 512 kts | 59° |
| 2026-04-27 20:54 | 42.71069 | -78.81226 | 45192 ft | 512 kts | 59° |
| 2026-04-27 20:55 | 42.74235 | -78.72533 | 45187 ft | 512 kts | 59° |
| 2026-04-27 20:55 | 42.77389 | -78.63847 | 45191 ft | 510 kts | 59° |
| 2026-04-27 20:56 | 42.80521 | -78.55194 | 45192 ft | 510 kts | 60° |
| 2026-04-27 20:56 | 42.83636 | -78.46560 | 45188 ft | 510 kts | 60° |
| 2026-04-27 20:57 | 42.86764 | -78.37868 | 45193 ft | 510 kts | 60° |
| 2026-04-27 20:57 | 42.89885 | -78.29163 | 45183 ft | 510 kts | 60° |
| 2026-04-27 20:58 | 42.92972 | -78.20528 | 45181 ft | 510 kts | 60° |
| 2026-04-27 20:58 | 42.96078 | -78.11813 | 45175 ft | 510 kts | 60° |
| 2026-04-27 20:59 | 42.99175 | -78.03096 | 45182 ft | 510 kts | 60° |
| 2026-04-27 20:59 | 43.02268 | -77.94360 | 45205 ft | 509 kts | 60° |
| 2026-04-27 21:00 | 43.05334 | -77.85680 | 45196 ft | 507 kts | 60° |
| 2026-04-27 21:00 | 43.08375 | -77.77036 | 45201 ft | 507 kts | 60° |
| 2026-04-27 21:01 | 43.11429 | -77.68329 | 45204 ft | 507 kts | 60° |
| 2026-04-27 21:01 | 43.14231 | -77.59436 | 45172 ft | 509 kts | 63° |
| 2026-04-27 21:02 | 43.16983 | -77.50541 | 45185 ft | 506 kts | 63° |
| 2026-04-27 21:02 | 43.19734 | -77.41629 | 45196 ft | 507 kts | 63° |
| 2026-04-27 21:03 | 43.22450 | -77.32767 | 45217 ft | 507 kts | 63° |
| 2026-04-27 21:03 | 43.25188 | -77.23842 | 45212 ft | 507 kts | 63° |
| 2026-04-27 21:04 | 43.27920 | -77.14911 | 45211 ft | 506 kts | 64° |
| 2026-04-27 21:04 | 43.30635 | -77.05962 | 45216 ft | 509 kts | 64° |
| 2026-04-27 21:05 | 43.33358 | -76.96988 | 45225 ft | 509 kts | 64° |
| 2026-04-27 21:05 | 43.36053 | -76.88057 | 45231 ft | 509 kts | 64° |
| 2026-04-27 21:06 | 43.38770 | -76.79038 | 45234 ft | 509 kts | 64° |
| 2026-04-27 21:06 | 43.41474 | -76.70015 | 45225 ft | 510 kts | 64° |
| 2026-04-27 21:07 | 43.44162 | -76.61026 | 45222 ft | 510 kts | 64° |
| 2026-04-27 21:07 | 43.46864 | -76.51953 | 45220 ft | 510 kts | 64° |
| 2026-04-27 21:08 | 43.49536 | -76.42952 | 45213 ft | 511 kts | 64° |
| 2026-04-27 21:08 | 43.51769 | -76.35400 | 45212 ft | 511 kts | 64° |
| 2026-04-27 21:09 | 43.54448 | -76.26316 | 45213 ft | 511 kts | 64° |
| 2026-04-27 21:09 | 43.57122 | -76.17214 | 45216 ft | 511 kts | 64° |
| 2026-04-27 21:10 | 43.59790 | -76.08107 | 45224 ft | 512 kts | 64° |
| 2026-04-27 21:10 | 43.62432 | -75.99043 | 45231 ft | 512 kts | 64° |
| 2026-04-27 21:11 | 43.65086 | -75.89913 | 45224 ft | 512 kts | 64° |
| 2026-04-27 21:11 | 43.67735 | -75.80767 | 45217 ft | 512 kts | 64° |
| 2026-04-27 21:12 | 43.70385 | -75.71584 | 45211 ft | 513 kts | 64° |
| 2026-04-27 21:12 | 43.73026 | -75.62397 | 45211 ft | 514 kts | 65° |
| 2026-04-27 21:13 | 43.75661 | -75.53196 | 45214 ft | 514 kts | 65° |
| 2026-04-27 21:13 | 43.78270 | -75.44057 | 45216 ft | 514 kts | 65° |
| 2026-04-27 21:14 | 43.80895 | -75.34826 | 45213 ft | 515 kts | 65° |
| 2026-04-27 21:14 | 43.83510 | -75.25593 | 45211 ft | 515 kts | 65° |
| 2026-04-27 21:15 | 43.86121 | -75.16344 | 45212 ft | 515 kts | 65° |
| 2026-04-27 21:15 | 43.88724 | -75.07084 | 45211 ft | 516 kts | 65° |
| 2026-04-27 21:16 | 43.91312 | -74.97846 | 45236 ft | 516 kts | 65° |
| 2026-04-27 21:16 | 43.93904 | -74.88557 | 45233 ft | 515 kts | 65° |
| 2026-04-27 21:16 | 43.95189 | -74.83939 | 44969 ft | 508 kts | 65° |
| 2026-04-27 21:17 | 43.96449 | -74.79397 | 44244 ft | 499 kts | 65° |
| 2026-04-27 21:17 | 43.97682 | -74.74947 | 43601 ft | 489 kts | 64° |
| 2026-04-27 21:17 | 43.98893 | -74.70574 | 42955 ft | 479 kts | 64° |
| 2026-04-27 21:17 | 44.00077 | -74.66290 | 42334 ft | 470 kts | 64° |
| 2026-04-27 21:18 | 44.01239 | -74.62076 | 41724 ft | 465 kts | 63° |
| 2026-04-27 21:18 | 44.02392 | -74.57895 | 41127 ft | 463 kts | 63° |
| 2026-04-27 21:18 | 44.03544 | -74.53710 | 40519 ft | 464 kts | 63° |
| 2026-04-27 21:18 | 44.04680 | -74.49568 | 39919 ft | 464 kts | 62° |
| 2026-04-27 21:19 | 44.05829 | -74.45368 | 39308 ft | 464 kts | 62° |
| 2026-04-27 21:19 | 44.06976 | -74.41170 | 38646 ft | 464 kts | 62° |
| 2026-04-27 21:19 | 44.08118 | -74.36988 | 38027 ft | 462 kts | 61° |
| 2026-04-27 21:20 | 44.10406 | -74.28595 | 36825 ft | 464 kts | 62° |
| 2026-04-27 21:20 | 44.11545 | -74.24392 | 36223 ft | 463 kts | 62° |
| 2026-04-27 21:20 | 44.12675 | -74.20213 | 35591 ft | 460 kts | 62° |
| 2026-04-27 21:20 | 44.13804 | -74.16045 | 34987 ft | 458 kts | 61° |
| 2026-04-27 21:21 | 44.14934 | -74.11879 | 34381 ft | 461 kts | 61° |
| 2026-04-27 21:21 | 44.16050 | -74.07743 | 33758 ft | 461 kts | 61° |
| 2026-04-27 21:21 | 44.17175 | -74.03554 | 33149 ft | 462 kts | 62° |
| 2026-04-27 21:21 | 44.18301 | -73.99362 | 32537 ft | 464 kts | 62° |
| 2026-04-27 21:22 | 44.19432 | -73.95151 | 31922 ft | 464 kts | 62° |
| 2026-04-27 21:22 | 44.20563 | -73.90929 | 31309 ft | 465 kts | 62° |
| 2026-04-27 21:22 | 44.21698 | -73.86681 | 30693 ft | 466 kts | 63° |
| 2026-04-27 21:22 | 44.22817 | -73.82478 | 30069 ft | 459 kts | 63° |
| 2026-04-27 21:23 | 44.23918 | -73.78335 | 29469 ft | 452 kts | 62° |
| 2026-04-27 21:23 | 44.24988 | -73.74312 | 28861 ft | 445 kts | 63° |
| 2026-04-27 21:23 | 44.26077 | -73.70228 | 28270 ft | 442 kts | 63° |
| 2026-04-27 21:23 | 44.27136 | -73.66229 | 27692 ft | 437 kts | 63° |
| 2026-04-27 21:24 | 44.28180 | -73.62271 | 27123 ft | 431 kts | 63° |
| 2026-04-27 21:24 | 44.29199 | -73.58411 | 26565 ft | 429 kts | 63° |
| 2026-04-27 21:24 | 44.30226 | -73.54519 | 25961 ft | 424 kts | 63° |
| 2026-04-27 21:24 | 44.31239 | -73.50682 | 25335 ft | 419 kts | 63° |
| 2026-04-27 21:25 | 44.32240 | -73.46883 | 24687 ft | 414 kts | 63° |
| 2026-04-27 21:25 | 44.33225 | -73.43127 | 24059 ft | 410 kts | 64° |
| 2026-04-27 21:25 | 44.34199 | -73.39403 | 23363 ft | 405 kts | 64° |
| 2026-04-27 21:25 | 44.35163 | -73.35723 | 22633 ft | 401 kts | 64° |
| 2026-04-27 21:26 | 44.36118 | -73.32070 | 21945 ft | 397 kts | 64° |
| 2026-04-27 21:26 | 44.37059 | -73.28461 | 21246 ft | 393 kts | 65° |
| 2026-04-27 21:26 | 44.37990 | -73.24888 | 20568 ft | 389 kts | 65° |
| 2026-04-27 21:26 | 44.38892 | -73.21408 | 19879 ft | 372 kts | 65° |
| 2026-04-27 21:27 | 44.39737 | -73.18051 | 19174 ft | 362 kts | 69° |
| 2026-04-27 21:27 | 44.40326 | -73.14643 | 18484 ft | 359 kts | 73° |
| 2026-04-27 21:27 | 44.40863 | -73.11251 | 17734 ft | 355 kts | 74° |
| 2026-04-27 21:27 | 44.41408 | -73.07917 | 17046 ft | 347 kts | 73° |
| 2026-04-27 21:28 | 44.41940 | -73.04735 | 16375 ft | 334 kts | 73° |
| 2026-04-27 21:28 | 44.42456 | -73.01610 | 15699 ft | 325 kts | 74° |
| 2026-04-27 21:28 | 44.42955 | -72.98551 | 15061 ft | 319 kts | 74° |
| 2026-04-27 21:28 | 44.43442 | -72.95564 | 14460 ft | 311 kts | 75° |
| 2026-04-27 21:29 | 44.43919 | -72.92644 | 13837 ft | 304 kts | 75° |
| 2026-04-27 21:29 | 44.44387 | -72.89780 | 13168 ft | 299 kts | 75° |
| 2026-04-27 21:29 | 44.44844 | -72.86969 | 12526 ft | 294 kts | 75° |
| 2026-04-27 21:29 | 44.45292 | -72.84206 | 11918 ft | 288 kts | 76° |
| 2026-04-27 21:30 | 44.45731 | -72.81498 | 11372 ft | 282 kts | 76° |
| 2026-04-27 21:30 | 44.46160 | -72.78847 | 10902 ft | 276 kts | 76° |
| 2026-04-27 21:30 | 44.46583 | -72.76232 | 10561 ft | 275 kts | 77° |
| 2026-04-27 21:30 | 44.47003 | -72.73634 | 10292 ft | 273 kts | 77° |
| 2026-04-27 21:31 | 44.47420 | -72.71044 | 9964 ft | 270 kts | 77° |
| 2026-04-27 21:31 | 44.47825 | -72.68526 | 9625 ft | 267 kts | 77° |
| 2026-04-27 21:31 | 44.48227 | -72.66019 | 9276 ft | 260 kts | 77° |
| 2026-04-27 21:31 | 44.48622 | -72.63556 | 8934 ft | 259 kts | 77° |
| 2026-04-27 21:32 | 44.49015 | -72.61100 | 8587 ft | 258 kts | 77° |
| 2026-04-27 21:32 | 44.49406 | -72.58654 | 8262 ft | 256 kts | 78° |
| 2026-04-27 21:32 | 44.49789 | -72.56259 | 7937 ft | 249 kts | 78° |
| 2026-04-27 21:32 | 44.50166 | -72.53894 | 7718 ft | 247 kts | 78° |
| 2026-04-27 21:33 | 44.50541 | -72.51541 | 7519 ft | 248 kts | 78° |
| 2026-04-27 21:33 | 44.50915 | -72.49185 | 7322 ft | 247 kts | 78° |
| 2026-04-27 21:33 | 44.51289 | -72.46831 | 7128 ft | 247 kts | 78° |
| 2026-04-27 21:33 | 44.51654 | -72.44529 | 6983 ft | 239 kts | 77° |
| 2026-04-27 21:34 | 44.52019 | -72.42220 | 6981 ft | 242 kts | 77° |
| 2026-04-27 21:34 | 44.52380 | -72.39935 | 6983 ft | 243 kts | 77° |
| 2026-04-27 21:34 | 44.52746 | -72.37618 | 6986 ft | 244 kts | 77° |
| 2026-04-27 21:34 | 44.53114 | -72.35291 | 6988 ft | 244 kts | 77° |
| 2026-04-27 21:35 | 44.53479 | -72.32963 | 6990 ft | 244 kts | 77° |
| 2026-04-27 21:35 | 44.53844 | -72.30640 | 6990 ft | 245 kts | 77° |
| 2026-04-27 21:35 | 44.54210 | -72.28310 | 6991 ft | 244 kts | 77° |
| 2026-04-27 21:35 | 44.54572 | -72.25981 | 6989 ft | 244 kts | 77° |
| 2026-04-27 21:36 | 44.54936 | -72.23653 | 6986 ft | 244 kts | 77° |
| 2026-04-27 21:36 | 44.55350 | -72.21343 | 6924 ft | 245 kts | 71° |
| 2026-04-27 21:36 | 44.56373 | -72.19457 | 6274 ft | 251 kts | 35° |
| 2026-04-27 21:36 | 44.57913 | -72.18348 | 5793 ft | 248 kts | 24° |
| 2026-04-27 21:37 | 44.59467 | -72.17341 | 5438 ft | 241 kts | 25° |
| 2026-04-27 21:37 | 44.60935 | -72.16324 | 5231 ft | 229 kts | 26° |
| 2026-04-27 21:37 | 44.62345 | -72.15330 | 5007 ft | 225 kts | 26° |
| 2026-04-27 21:37 | 44.63735 | -72.14363 | 4773 ft | 220 kts | 26° |
| 2026-04-27 21:38 | 44.65089 | -72.13426 | 4525 ft | 216 kts | 25° |
| 2026-04-27 21:38 | 44.66412 | -72.12507 | 4227 ft | 214 kts | 25° |
| 2026-04-27 21:38 | 44.67815 | -72.11944 | 3826 ft | 212 kts | 358° |
| 2026-04-27 21:38 | 44.69227 | -72.12460 | 3489 ft | 209 kts | 339° |
| 2026-04-27 21:39 | 44.70566 | -72.13183 | 3310 ft | 196 kts | 339° |
| 2026-04-27 21:39 | 44.71816 | -72.13841 | 3301 ft | 190 kts | 339° |
| 2026-04-27 21:39 | 44.73049 | -72.14481 | 3298 ft | 189 kts | 339° |
| 2026-04-27 21:39 | 44.74284 | -72.15125 | 3296 ft | 188 kts | 339° |
| 2026-04-27 21:40 | 44.75503 | -72.15760 | 3291 ft | 181 kts | 339° |
| 2026-04-27 21:40 | 44.76653 | -72.16360 | 3161 ft | 175 kts | 339° |
| 2026-04-27 21:40 | 44.77793 | -72.16957 | 2932 ft | 174 kts | 339° |
| 2026-04-27 21:40 | 44.78912 | -72.17542 | 2669 ft | 169 kts | 339° |
| 2026-04-27 21:41 | 44.79995 | -72.18108 | 2429 ft | 163 kts | 339° |
| 2026-04-27 21:41 | 44.81026 | -72.18646 | 2142 ft | 153 kts | 338° |
| 2026-04-27 21:41 | 44.82010 | -72.19162 | 1920 ft | 151 kts | 338° |
| 2026-04-27 21:41 | 44.82999 | -72.19681 | 1801 ft | 153 kts | 339° |
| 2026-04-27 21:42 | 44.83990 | -72.20197 | 1673 ft | 146 kts | 339° |
| 2026-04-27 21:42 | 44.84918 | -72.20686 | 1509 ft | 141 kts | 338° |
| 2026-04-27 21:42 | 44.85820 | -72.21168 | 1373 ft | 132 kts | 339° |
| 2026-04-27 21:42 | 44.86655 | -72.21605 | 1195 ft | 128 kts | 339° |
| 2026-04-27 21:43 | 44.87493 | -72.22042 | 1035 ft | 129 kts | 340° |
| 2026-04-27 21:43 | 44.88316 | -72.22468 | 932 ft | 121 kts | 342° |
| 2026-04-27 21:43 | 44.88966 | -72.22809 | 931 ft | 73 kts | 340° |
| 2026-04-27 21:43 | 44.89216 | -72.22894 | 930 ft | 15 kts | 30° |
| 2026-04-27 21:44 | 44.89212 | -72.22815 | 930 ft | 9 kts | 155° |
| 2026-04-27 21:44 | 44.89158 | -72.22788 | 932 ft | 8 kts | 160° |
| 2026-04-27 21:44 | 44.89107 | -72.22761 | 933 ft | 8 kts | 160° |
| 2026-04-27 21:44 | 44.89059 | -72.22736 | 931 ft | 7 kts | 159° |
| 2026-04-27 21:45 | 44.89014 | -72.22711 | 933 ft | 6 kts | 146° |
| 2026-04-27 21:45 | 44.89018 | -72.22669 | 934 ft | 4 kts | 68° |
| 2026-04-27 21:45 | 44.89024 | -72.22632 | 931 ft | 4 kts | 97° |
| 2026-04-27 21:45 | 44.89005 | -72.22611 | 933 ft | 4 kts | 162° |
| 2026-04-27 21:46 | 44.88980 | -72.22599 | 933 ft | 4 kts | 160° |
| 2026-04-27 21:46 | 44.88956 | -72.22586 | 932 ft | 4 kts | 159° |
| 2026-04-27 21:46 | 44.88932 | -72.22573 | 932 ft | 4 kts | 160° |
| 2026-04-27 21:46 | 44.88908 | -72.22561 | 931 ft | 4 kts | 159° |
| 2026-04-27 21:47 | 44.88904 | -72.22558 | 930 ft | 0 kts | 159° |